sensor_id;sensor_type;location;lat;lon;timestamp;P1;durP1;ratioP1;P2;durP2;ratioP2
33108;SDS011;19481;51.118;6.940;2023-05-02T00:01:58;12.27;;;8.90;;
33108;SDS011;19481;51.118;6.940;2023-05-02T00:07:00;15.88;;;8.30;;
33108;SDS011;19481;51.118;6.940;2023-05-02T00:12:02;15.00;;;8.40;;
33108;SDS011;19481;51.118;6.940;2023-05-02T00:17:05;13.55;;;8.88;;
33108;SDS011;19481;51.118;6.940;2023-05-02T00:22:06;14.23;;;9.27;;
33108;SDS011;19481;51.118;6.940;2023-05-02T00:27:08;16.08;;;9.38;;
33108;SDS011;19481;51.118;6.940;2023-05-02T00:32:11;13.40;;;9.40;;
33108;SDS011;19481;51.118;6.940;2023-05-02T00:37:12;16.52;;;8.35;;
33108;SDS011;19481;51.118;6.940;2023-05-02T00:42:15;15.75;;;9.65;;
33108;SDS011;19481;51.118;6.940;2023-05-02T00:47:17;14.85;;;10.35;;
33108;SDS011;19481;51.118;6.940;2023-05-02T00:52:20;19.40;;;11.88;;
33108;SDS011;19481;51.118;6.940;2023-05-02T00:57:22;20.33;;;12.30;;
33108;SDS011;19481;51.118;6.940;2023-05-02T01:02:28;20.30;;;12.43;;
33108;SDS011;19481;51.118;6.940;2023-05-02T01:07:36;26.23;;;14.10;;
33108;SDS011;19481;51.118;6.940;2023-05-02T01:12:48;29.23;;;13.82;;
33108;SDS011;19481;51.118;6.940;2023-05-02T01:17:58;27.52;;;13.75;;
33108;SDS011;19481;51.118;6.940;2023-05-02T01:23:03;28.48;;;14.50;;
33108;SDS011;19481;51.118;6.940;2023-05-02T01:28:22;30.45;;;14.57;;
33108;SDS011;19481;51.118;6.940;2023-05-02T01:33:32;29.75;;;14.95;;
33108;SDS011;19481;51.118;6.940;2023-05-02T01:38:35;30.65;;;14.38;;
33108;SDS011;19481;51.118;6.940;2023-05-02T01:43:39;29.17;;;15.35;;
33108;SDS011;19481;51.118;6.940;2023-05-02T01:48:43;32.55;;;15.57;;
33108;SDS011;19481;51.118;6.940;2023-05-02T01:53:47;32.58;;;15.02;;
33108;SDS011;19481;51.118;6.940;2023-05-02T01:58:50;30.90;;;15.65;;
33108;SDS011;19481;51.118;6.940;2023-05-02T02:03:57;31.27;;;16.65;;
33108;SDS011;19481;51.118;6.940;2023-05-02T02:09:00;38.17;;;15.82;;
33108;SDS011;19481;51.118;6.940;2023-05-02T02:14:04;39.92;;;17.27;;
33108;SDS011;19481;51.118;6.940;2023-05-02T02:19:09;32.38;;;15.75;;
33108;SDS011;19481;51.118;6.940;2023-05-02T02:24:15;31.95;;;14.73;;
33108;SDS011;19481;51.118;6.940;2023-05-02T02:29:18;33.10;;;15.65;;
33108;SDS011;19481;51.118;6.940;2023-05-02T02:34:21;31.85;;;13.65;;
33108;SDS011;19481;51.118;6.940;2023-05-02T02:44:49;31.88;;;14.27;;
33108;SDS011;19481;51.118;6.940;2023-05-02T02:50:01;25.33;;;13.00;;
33108;SDS011;19481;51.118;6.940;2023-05-02T02:55:12;29.40;;;13.45;;
33108;SDS011;19481;51.118;6.940;2023-05-02T03:00:21;29.65;;;13.05;;
33108;SDS011;19481;51.118;6.940;2023-05-02T03:05:27;27.02;;;12.40;;
33108;SDS011;19481;51.118;6.940;2023-05-02T03:10:29;26.60;;;12.45;;
33108;SDS011;19481;51.118;6.940;2023-05-02T03:15:43;29.10;;;12.70;;
33108;SDS011;19481;51.118;6.940;2023-05-02T03:21:09;30.40;;;12.18;;
33108;SDS011;19481;51.118;6.940;2023-05-02T03:26:10;28.85;;;13.00;;
33108;SDS011;19481;51.118;6.940;2023-05-02T03:31:12;30.00;;;13.27;;
33108;SDS011;19481;51.118;6.940;2023-05-02T03:36:16;31.48;;;13.38;;
33108;SDS011;19481;51.118;6.940;2023-05-02T03:41:17;32.38;;;14.93;;
33108;SDS011;19481;51.118;6.940;2023-05-02T03:46:20;29.05;;;12.70;;
33108;SDS011;19481;51.118;6.940;2023-05-02T03:51:23;26.95;;;13.02;;
33108;SDS011;19481;51.118;6.940;2023-05-02T03:56:24;26.20;;;12.88;;
33108;SDS011;19481;51.118;6.940;2023-05-02T04:01:26;29.88;;;12.63;;
33108;SDS011;19481;51.118;6.940;2023-05-02T04:06:29;26.23;;;13.20;;
33108;SDS011;19481;51.118;6.940;2023-05-02T04:11:31;30.88;;;13.30;;
33108;SDS011;19481;51.118;6.940;2023-05-02T04:16:33;30.02;;;14.40;;
33108;SDS011;19481;51.118;6.940;2023-05-02T04:21:36;28.52;;;12.95;;
33108;SDS011;19481;51.118;6.940;2023-05-02T04:26:38;27.75;;;13.50;;
33108;SDS011;19481;51.118;6.940;2023-05-02T04:31:39;33.55;;;13.70;;
33108;SDS011;19481;51.118;6.940;2023-05-02T04:36:43;24.38;;;13.07;;
33108;SDS011;19481;51.118;6.940;2023-05-02T04:41:45;25.27;;;12.23;;
33108;SDS011;19481;51.118;6.940;2023-05-02T04:46:47;29.55;;;12.07;;
33108;SDS011;19481;51.118;6.940;2023-05-02T04:51:50;24.30;;;11.85;;
33108;SDS011;19481;51.118;6.940;2023-05-02T04:56:52;26.00;;;12.75;;
33108;SDS011;19481;51.118;6.940;2023-05-02T05:01:54;22.35;;;10.13;;
33108;SDS011;19481;51.118;6.940;2023-05-02T05:06:57;23.13;;;10.32;;
33108;SDS011;19481;51.118;6.940;2023-05-02T05:11:58;26.77;;;10.82;;
33108;SDS011;19481;51.118;6.940;2023-05-02T05:17:00;24.15;;;10.65;;
33108;SDS011;19481;51.118;6.940;2023-05-02T05:22:03;20.55;;;9.73;;
33108;SDS011;19481;51.118;6.940;2023-05-02T05:27:05;23.27;;;10.32;;
33108;SDS011;19481;51.118;6.940;2023-05-02T05:32:06;22.50;;;10.50;;
33108;SDS011;19481;51.118;6.940;2023-05-02T05:37:10;19.90;;;9.88;;
33108;SDS011;19481;51.118;6.940;2023-05-02T05:42:12;24.20;;;9.80;;
33108;SDS011;19481;51.118;6.940;2023-05-02T05:47:17;20.35;;;9.43;;
33108;SDS011;19481;51.118;6.940;2023-05-02T05:52:20;22.88;;;9.10;;
33108;SDS011;19481;51.118;6.940;2023-05-02T05:57:22;19.25;;;9.25;;
33108;SDS011;19481;51.118;6.940;2023-05-02T06:02:24;22.75;;;9.20;;
33108;SDS011;19481;51.118;6.940;2023-05-02T06:07:27;20.30;;;8.68;;
33108;SDS011;19481;51.118;6.940;2023-05-02T06:12:29;23.70;;;10.48;;
33108;SDS011;19481;51.118;6.940;2023-05-02T06:17:31;19.40;;;9.10;;
33108;SDS011;19481;51.118;6.940;2023-05-02T06:22:34;16.25;;;8.98;;
33108;SDS011;19481;51.118;6.940;2023-05-02T06:27:35;16.55;;;8.30;;
33108;SDS011;19481;51.118;6.940;2023-05-02T06:32:37;15.65;;;8.10;;
33108;SDS011;19481;51.118;6.940;2023-05-02T06:37:41;9.25;;;6.35;;
33108;SDS011;19481;51.118;6.940;2023-05-02T06:42:42;14.63;;;7.43;;
33108;SDS011;19481;51.118;6.940;2023-05-02T06:47:44;11.68;;;6.90;;
33108;SDS011;19481;51.118;6.940;2023-05-02T06:52:47;11.05;;;7.72;;
33108;SDS011;19481;51.118;6.940;2023-05-02T06:57:48;9.65;;;6.60;;
33108;SDS011;19481;51.118;6.940;2023-05-02T07:02:51;8.57;;;4.82;;
33108;SDS011;19481;51.118;6.940;2023-05-02T07:07:54;9.10;;;4.88;;
33108;SDS011;19481;51.118;6.940;2023-05-02T07:12:55;10.30;;;4.35;;
33108;SDS011;19481;51.118;6.940;2023-05-02T07:17:57;6.55;;;4.05;;
33108;SDS011;19481;51.118;6.940;2023-05-02T07:23:00;6.32;;;3.75;;
33108;SDS011;19481;51.118;6.940;2023-05-02T07:28:01;3.75;;;3.03;;
33108;SDS011;19481;51.118;6.940;2023-05-02T07:33:03;3.08;;;2.50;;
33108;SDS011;19481;51.118;6.940;2023-05-02T07:38:06;5.50;;;3.35;;
33108;SDS011;19481;51.118;6.940;2023-05-02T07:43:08;8.50;;;3.95;;
33108;SDS011;19481;51.118;6.940;2023-05-02T07:48:10;9.52;;;4.43;;
33108;SDS011;19481;51.118;6.940;2023-05-02T07:53:13;8.00;;;4.30;;
33108;SDS011;19481;51.118;6.940;2023-05-02T07:58:14;6.53;;;3.58;;
33108;SDS011;19481;51.118;6.940;2023-05-02T08:03:16;5.75;;;3.75;;
33108;SDS011;19481;51.118;6.940;2023-05-02T08:08:19;5.88;;;3.75;;
33108;SDS011;19481;51.118;6.940;2023-05-02T08:13:20;6.80;;;3.00;;
33108;SDS011;19481;51.118;6.940;2023-05-02T08:18:22;5.40;;;3.78;;
33108;SDS011;19481;51.118;6.940;2023-05-02T08:23:25;6.70;;;4.35;;
33108;SDS011;19481;51.118;6.940;2023-05-02T08:28:26;7.10;;;2.38;;
33108;SDS011;19481;51.118;6.940;2023-05-02T08:33:28;5.25;;;2.28;;
33108;SDS011;19481;51.118;6.940;2023-05-02T08:38:31;7.70;;;1.58;;
33108;SDS011;19481;51.118;6.940;2023-05-02T08:43:34;2.20;;;1.52;;
33108;SDS011;19481;51.118;6.940;2023-05-02T08:48:37;1.85;;;1.60;;
33108;SDS011;19481;51.118;6.940;2023-05-02T08:53:42;3.50;;;2.17;;
33108;SDS011;19481;51.118;6.940;2023-05-02T08:58:44;3.45;;;1.83;;
33108;SDS011;19481;51.118;6.940;2023-05-02T09:03:46;2.17;;;1.77;;
33108;SDS011;19481;51.118;6.940;2023-05-02T09:08:50;6.32;;;2.08;;
33108;SDS011;19481;51.118;6.940;2023-05-02T09:13:52;2.97;;;1.83;;
33108;SDS011;19481;51.118;6.940;2023-05-02T09:18:56;2.92;;;2.33;;
33108;SDS011;19481;51.118;6.940;2023-05-02T09:24:00;3.85;;;2.80;;
33108;SDS011;19481;51.118;6.940;2023-05-02T09:29:03;4.25;;;3.05;;
33108;SDS011;19481;51.118;6.940;2023-05-02T09:34:07;6.57;;;3.55;;
33108;SDS011;19481;51.118;6.940;2023-05-02T09:39:11;10.38;;;3.88;;
33108;SDS011;19481;51.118;6.940;2023-05-02T09:44:15;10.70;;;2.80;;
33108;SDS011;19481;51.118;6.940;2023-05-02T09:49:18;9.90;;;3.38;;
33108;SDS011;19481;51.118;6.940;2023-05-02T09:54:39;5.53;;;3.25;;
33108;SDS011;19481;51.118;6.940;2023-05-02T09:59:51;3.08;;;2.42;;
33108;SDS011;19481;51.118;6.940;2023-05-02T10:04:54;4.45;;;2.25;;
33108;SDS011;19481;51.118;6.940;2023-05-02T10:09:58;6.55;;;2.75;;
33108;SDS011;19481;51.118;6.940;2023-05-02T10:15:02;3.90;;;2.00;;
33108;SDS011;19481;51.118;6.940;2023-05-02T10:20:05;4.38;;;1.60;;
33108;SDS011;19481;51.118;6.940;2023-05-02T10:25:09;2.28;;;1.20;;
33108;SDS011;19481;51.118;6.940;2023-05-02T10:30:12;2.22;;;1.42;;
33108;SDS011;19481;51.118;6.940;2023-05-02T10:35:14;3.05;;;1.33;;
33108;SDS011;19481;51.118;6.940;2023-05-02T10:40:17;5.10;;;1.83;;
33108;SDS011;19481;51.118;6.940;2023-05-02T10:45:29;4.20;;;1.50;;
33108;SDS011;19481;51.118;6.940;2023-05-02T10:50:41;5.05;;;1.55;;
33108;SDS011;19481;51.118;6.940;2023-05-02T10:55:45;5.95;;;1.92;;
33108;SDS011;19481;51.118;6.940;2023-05-02T11:06:33;4.85;;;2.33;;
33108;SDS011;19481;51.118;6.940;2023-05-02T11:11:40;6.03;;;2.08;;
33108;SDS011;19481;51.118;6.940;2023-05-02T11:22:29;6.28;;;1.63;;
33108;SDS011;19481;51.118;6.940;2023-05-02T11:27:39;3.45;;;1.85;;
33108;SDS011;19481;51.118;6.940;2023-05-02T11:38:15;4.22;;;2.10;;
33108;SDS011;19481;51.118;6.940;2023-05-02T11:43:21;4.18;;;1.88;;
33108;SDS011;19481;51.118;6.940;2023-05-02T11:48:24;4.97;;;2.22;;
33108;SDS011;19481;51.118;6.940;2023-05-02T11:53:27;4.40;;;2.17;;
33108;SDS011;19481;51.118;6.940;2023-05-02T11:58:31;6.20;;;2.72;;
33108;SDS011;19481;51.118;6.940;2023-05-02T12:03:33;4.13;;;2.50;;
33108;SDS011;19481;51.118;6.940;2023-05-02T12:08:35;6.25;;;2.55;;
33108;SDS011;19481;51.118;6.940;2023-05-02T12:13:44;5.25;;;2.25;;
33108;SDS011;19481;51.118;6.940;2023-05-02T12:18:47;6.05;;;2.60;;
33108;SDS011;19481;51.118;6.940;2023-05-02T12:23:48;4.35;;;2.75;;
33108;SDS011;19481;51.118;6.940;2023-05-02T12:28:52;5.13;;;2.90;;
33108;SDS011;19481;51.118;6.940;2023-05-02T12:33:54;5.65;;;2.70;;
33108;SDS011;19481;51.118;6.940;2023-05-02T12:38:58;6.10;;;3.03;;
33108;SDS011;19481;51.118;6.940;2023-05-02T12:44:02;7.70;;;3.25;;
33108;SDS011;19481;51.118;6.940;2023-05-02T12:49:04;6.88;;;3.45;;
33108;SDS011;19481;51.118;6.940;2023-05-02T12:54:07;3.53;;;3.17;;
33108;SDS011;19481;51.118;6.940;2023-05-02T12:59:10;7.47;;;3.75;;
33108;SDS011;19481;51.118;6.940;2023-05-02T13:04:34;5.75;;;3.47;;
33108;SDS011;19481;51.118;6.940;2023-05-02T13:09:37;5.90;;;3.38;;
33108;SDS011;19481;51.118;6.940;2023-05-02T13:14:40;4.68;;;2.80;;
33108;SDS011;19481;51.118;6.940;2023-05-02T13:19:42;4.22;;;2.97;;
33108;SDS011;19481;51.118;6.940;2023-05-02T13:24:44;5.15;;;2.75;;
33108;SDS011;19481;51.118;6.940;2023-05-02T13:29:47;8.80;;;2.90;;
33108;SDS011;19481;51.118;6.940;2023-05-02T13:34:50;7.22;;;3.00;;
33108;SDS011;19481;51.118;6.940;2023-05-02T13:39:51;4.82;;;2.60;;
33108;SDS011;19481;51.118;6.940;2023-05-02T13:44:54;6.50;;;2.90;;
33108;SDS011;19481;51.118;6.940;2023-05-02T13:49:56;7.70;;;3.25;;
33108;SDS011;19481;51.118;6.940;2023-05-02T13:54:57;5.78;;;3.17;;
33108;SDS011;19481;51.118;6.940;2023-05-02T14:00:00;6.60;;;2.90;;
33108;SDS011;19481;51.118;6.940;2023-05-02T14:05:03;4.20;;;3.20;;
33108;SDS011;19481;51.118;6.940;2023-05-02T14:10:05;3.20;;;2.67;;
33108;SDS011;19481;51.118;6.940;2023-05-02T14:15:09;5.03;;;3.00;;
33108;SDS011;19481;51.118;6.940;2023-05-02T14:20:12;4.30;;;2.85;;
33108;SDS011;19481;51.118;6.940;2023-05-02T14:25:13;6.72;;;3.03;;
33108;SDS011;19481;51.118;6.940;2023-05-02T14:30:20;3.60;;;2.83;;
33108;SDS011;19481;51.118;6.940;2023-05-02T14:35:21;3.90;;;2.95;;
33108;SDS011;19481;51.118;6.940;2023-05-02T14:40:23;4.70;;;2.40;;
33108;SDS011;19481;51.118;6.940;2023-05-02T14:45:26;4.10;;;2.45;;
33108;SDS011;19481;51.118;6.940;2023-05-02T14:50:28;3.70;;;2.50;;
33108;SDS011;19481;51.118;6.940;2023-05-02T14:55:34;2.85;;;2.40;;
33108;SDS011;19481;51.118;6.940;2023-05-02T15:00:37;4.38;;;2.50;;
33108;SDS011;19481;51.118;6.940;2023-05-02T15:05:39;4.18;;;2.90;;
33108;SDS011;19481;51.118;6.940;2023-05-02T15:10:40;9.50;;;2.22;;
33108;SDS011;19481;51.118;6.940;2023-05-02T15:15:46;3.50;;;2.42;;
33108;SDS011;19481;51.118;6.940;2023-05-02T15:20:48;6.05;;;2.60;;
33108;SDS011;19481;51.118;6.940;2023-05-02T15:25:49;6.60;;;3.00;;
33108;SDS011;19481;51.118;6.940;2023-05-02T15:30:52;3.22;;;2.88;;
33108;SDS011;19481;51.118;6.940;2023-05-02T15:35:54;3.42;;;2.83;;
33108;SDS011;19481;51.118;6.940;2023-05-02T15:40:57;3.33;;;3.00;;
33108;SDS011;19481;51.118;6.940;2023-05-02T15:46:01;3.83;;;2.60;;
33108;SDS011;19481;51.118;6.940;2023-05-02T15:51:03;3.63;;;2.53;;
33108;SDS011;19481;51.118;6.940;2023-05-02T15:56:06;3.53;;;2.80;;
33108;SDS011;19481;51.118;6.940;2023-05-02T16:01:09;10.43;;;2.50;;
33108;SDS011;19481;51.118;6.940;2023-05-02T16:06:11;3.72;;;2.50;;
33108;SDS011;19481;51.118;6.940;2023-05-02T16:11:14;7.13;;;2.03;;
33108;SDS011;19481;51.118;6.940;2023-05-02T16:16:17;7.45;;;2.17;;
33108;SDS011;19481;51.118;6.940;2023-05-02T16:21:19;8.13;;;2.50;;
33108;SDS011;19481;51.118;6.940;2023-05-02T16:26:21;4.88;;;2.50;;
33108;SDS011;19481;51.118;6.940;2023-05-02T16:31:23;4.50;;;2.45;;
33108;SDS011;19481;51.118;6.940;2023-05-02T16:36:25;6.80;;;2.85;;
33108;SDS011;19481;51.118;6.940;2023-05-02T16:41:28;4.13;;;3.10;;
33108;SDS011;19481;51.118;6.940;2023-05-02T16:46:31;7.25;;;2.97;;
33108;SDS011;19481;51.118;6.940;2023-05-02T16:51:32;4.78;;;2.10;;
33108;SDS011;19481;51.118;6.940;2023-05-02T16:56:34;3.38;;;2.30;;
33108;SDS011;19481;51.118;6.940;2023-05-02T17:01:37;5.35;;;2.08;;
33108;SDS011;19481;51.118;6.940;2023-05-02T17:06:39;4.38;;;1.85;;
33108;SDS011;19481;51.118;6.940;2023-05-02T17:11:40;2.60;;;1.92;;
33108;SDS011;19481;51.118;6.940;2023-05-02T17:16:43;3.55;;;2.20;;
33108;SDS011;19481;51.118;6.940;2023-05-02T17:21:45;5.35;;;2.72;;
33108;SDS011;19481;51.118;6.940;2023-05-02T17:26:46;5.38;;;2.03;;
33108;SDS011;19481;51.118;6.940;2023-05-02T17:31:49;5.10;;;2.10;;
33108;SDS011;19481;51.118;6.940;2023-05-02T17:36:51;6.13;;;2.17;;
33108;SDS011;19481;51.118;6.940;2023-05-02T17:41:53;6.45;;;2.33;;
33108;SDS011;19481;51.118;6.940;2023-05-02T17:46:56;5.82;;;2.40;;
33108;SDS011;19481;51.118;6.940;2023-05-02T17:51:57;6.05;;;2.25;;
33108;SDS011;19481;51.118;6.940;2023-05-02T17:56:59;3.72;;;2.20;;
33108;SDS011;19481;51.118;6.940;2023-05-02T18:02:02;3.25;;;2.08;;
33108;SDS011;19481;51.118;6.940;2023-05-02T18:07:03;5.65;;;2.20;;
33108;SDS011;19481;51.118;6.940;2023-05-02T18:12:05;6.97;;;2.17;;
33108;SDS011;19481;51.118;6.940;2023-05-02T18:17:08;7.85;;;2.25;;
33108;SDS011;19481;51.118;6.940;2023-05-02T18:22:10;2.92;;;1.90;;
33108;SDS011;19481;51.118;6.940;2023-05-02T18:27:13;6.53;;;1.98;;
33108;SDS011;19481;51.118;6.940;2023-05-02T18:32:16;3.55;;;1.60;;
33108;SDS011;19481;51.118;6.940;2023-05-02T18:37:17;5.45;;;1.88;;
33108;SDS011;19481;51.118;6.940;2023-05-02T18:42:19;7.18;;;2.28;;
33108;SDS011;19481;51.118;6.940;2023-05-02T18:47:22;2.65;;;1.63;;
33108;SDS011;19481;51.118;6.940;2023-05-02T18:52:24;7.93;;;1.60;;
33108;SDS011;19481;51.118;6.940;2023-05-02T18:57:25;4.25;;;2.03;;
33108;SDS011;19481;51.118;6.940;2023-05-02T19:02:28;6.78;;;2.25;;
33108;SDS011;19481;51.118;6.940;2023-05-02T19:07:30;3.03;;;1.95;;
33108;SDS011;19481;51.118;6.940;2023-05-02T19:12:31;3.28;;;1.80;;
33108;SDS011;19481;51.118;6.940;2023-05-02T19:17:34;3.20;;;1.98;;
33108;SDS011;19481;51.118;6.940;2023-05-02T19:22:36;9.18;;;2.38;;
33108;SDS011;19481;51.118;6.940;2023-05-02T19:27:38;6.15;;;2.85;;
33108;SDS011;19481;51.118;6.940;2023-05-02T19:32:41;5.97;;;2.33;;
33108;SDS011;19481;51.118;6.940;2023-05-02T19:37:42;8.20;;;2.20;;
33108;SDS011;19481;51.118;6.940;2023-05-02T19:42:44;4.97;;;2.70;;
33108;SDS011;19481;51.118;6.940;2023-05-02T19:47:47;4.40;;;2.50;;
33108;SDS011;19481;51.118;6.940;2023-05-02T19:52:48;2.47;;;2.20;;
33108;SDS011;19481;51.118;6.940;2023-05-02T19:57:50;3.17;;;2.03;;
33108;SDS011;19481;51.118;6.940;2023-05-02T20:02:53;9.70;;;2.20;;
33108;SDS011;19481;51.118;6.940;2023-05-02T20:07:55;4.63;;;2.13;;
33108;SDS011;19481;51.118;6.940;2023-05-02T20:12:58;2.25;;;2.05;;
33108;SDS011;19481;51.118;6.940;2023-05-02T20:18:01;5.18;;;2.55;;
33108;SDS011;19481;51.118;6.940;2023-05-02T20:23:03;5.93;;;2.70;;
33108;SDS011;19481;51.118;6.940;2023-05-02T20:28:04;4.32;;;2.70;;
33108;SDS011;19481;51.118;6.940;2023-05-02T20:33:07;13.05;;;2.90;;
33108;SDS011;19481;51.118;6.940;2023-05-02T20:38:09;13.70;;;2.90;;
33108;SDS011;19481;51.118;6.940;2023-05-02T20:43:11;7.65;;;2.85;;
33108;SDS011;19481;51.118;6.940;2023-05-02T20:48:15;7.03;;;3.42;;
33108;SDS011;19481;51.118;6.940;2023-05-02T20:53:17;9.60;;;2.63;;
33108;SDS011;19481;51.118;6.940;2023-05-02T20:58:19;6.60;;;2.83;;
33108;SDS011;19481;51.118;6.940;2023-05-02T21:03:22;7.38;;;3.13;;
33108;SDS011;19481;51.118;6.940;2023-05-02T21:08:24;7.45;;;3.22;;
33108;SDS011;19481;51.118;6.940;2023-05-02T21:13:25;4.25;;;2.70;;
33108;SDS011;19481;51.118;6.940;2023-05-02T21:18:28;8.25;;;2.65;;
33108;SDS011;19481;51.118;6.940;2023-05-02T21:23:30;5.32;;;2.67;;
33108;SDS011;19481;51.118;6.940;2023-05-02T21:28:31;6.80;;;3.13;;
33108;SDS011;19481;51.118;6.940;2023-05-02T21:33:34;6.43;;;3.00;;
33108;SDS011;19481;51.118;6.940;2023-05-02T21:38:36;4.82;;;3.22;;
33108;SDS011;19481;51.118;6.940;2023-05-02T21:43:38;3.38;;;2.92;;
33108;SDS011;19481;51.118;6.940;2023-05-02T21:48:41;6.82;;;2.75;;
33108;SDS011;19481;51.118;6.940;2023-05-02T21:53:43;4.80;;;3.35;;
33108;SDS011;19481;51.118;6.940;2023-05-02T21:58:44;7.85;;;2.70;;
33108;SDS011;19481;51.118;6.940;2023-05-02T22:03:49;7.10;;;3.80;;
33108;SDS011;19481;51.118;6.940;2023-05-02T22:08:51;3.85;;;3.28;;
33108;SDS011;19481;51.118;6.940;2023-05-02T22:13:53;5.30;;;2.88;;
33108;SDS011;19481;51.118;6.940;2023-05-02T22:18:56;4.70;;;3.22;;
33108;SDS011;19481;51.118;6.940;2023-05-02T22:23:58;4.53;;;3.17;;
33108;SDS011;19481;51.118;6.940;2023-05-02T22:28:59;7.28;;;2.85;;
33108;SDS011;19481;51.118;6.940;2023-05-02T22:34:02;8.70;;;3.42;;
33108;SDS011;19481;51.118;6.940;2023-05-02T22:39:04;7.50;;;3.35;;
33108;SDS011;19481;51.118;6.940;2023-05-02T22:44:08;9.18;;;3.03;;
33108;SDS011;19481;51.118;6.940;2023-05-02T22:49:11;7.93;;;3.67;;
33108;SDS011;19481;51.118;6.940;2023-05-02T22:54:13;7.13;;;2.92;;
33108;SDS011;19481;51.118;6.940;2023-05-02T22:59:15;4.05;;;2.80;;
33108;SDS011;19481;51.118;6.940;2023-05-02T23:04:18;7.00;;;2.95;;
33108;SDS011;19481;51.118;6.940;2023-05-02T23:09:20;2.90;;;2.45;;
33108;SDS011;19481;51.118;6.940;2023-05-02T23:14:22;5.10;;;2.50;;
33108;SDS011;19481;51.118;6.940;2023-05-02T23:19:25;5.22;;;2.58;;
33108;SDS011;19481;51.118;6.940;2023-05-02T23:24:26;4.13;;;2.85;;
33108;SDS011;19481;51.118;6.940;2023-05-02T23:29:28;4.78;;;2.83;;
33108;SDS011;19481;51.118;6.940;2023-05-02T23:34:31;2.25;;;2.05;;
33108;SDS011;19481;51.118;6.940;2023-05-02T23:39:33;4.75;;;2.42;;
33108;SDS011;19481;51.118;6.940;2023-05-02T23:44:34;3.58;;;2.60;;
33108;SDS011;19481;51.118;6.940;2023-05-02T23:49:37;4.78;;;2.65;;
33108;SDS011;19481;51.118;6.940;2023-05-02T23:54:39;3.88;;;2.45;;
33108;SDS011;19481;51.118;6.940;2023-05-02T23:59:41;6.47;;;2.65;;
